Time;durP1;ratioP1;P1;durP2;ratioP2;P2;SDS_P1;SDS_P2;PMS_P1;PMS_P2;Temp;Humidity;BMP_temperature;BMP_pressure;BME280_temperature;BME280_humidity;BME280_pressure;Samples;Min_cycle;Max_cycle;Signal;HPM_P1;HPM_P2
2022/11/27 00:02:01;;;;;;;6.90;3.13;;;7.60;99.90;;;;;;5027554;28;20607;-75
2022/11/27 00:04:27;;;;;;;5.67;3.77;;;7.60;99.90;;;;;;5030623;28;20170;-76
2022/11/27 00:06:53;;;;;;;7.30;3.00;;;7.60;99.90;;;;;;5028842;28;20186;-76
2022/11/27 00:09:18;;;;;;;8.80;3.13;;;7.60;99.90;;;;;;5029479;28;20193;-75
2022/11/27 00:11:45;;;;;;;4.73;2.57;;;7.60;99.90;;;;;;5029397;28;20193;-75
2022/11/27 00:14:13;;;;;;;9.25;3.22;;;7.60;99.90;;;;;;5028794;28;20568;-75
2022/11/27 00:16:39;;;;;;;10.88;3.78;;;7.60;99.90;;;;;;4995961;28;20268;-75
2022/11/27 00:19:04;;;;;;;6.78;3.40;;;7.60;99.90;;;;;;5030521;28;20174;-75
2022/11/27 00:21:33;;;;;;;7.90;2.93;;;7.60;99.90;;;;;;5031960;28;20193;-75
2022/11/27 00:24:02;;;;;;;6.20;2.65;;;7.60;99.90;;;;;;5032546;28;20173;-75
2022/11/27 00:26:29;;;;;;;7.05;2.97;;;7.60;99.90;;;;;;5029665;28;20271;-75
2022/11/27 00:28:55;;;;;;;4.35;2.42;;;7.60;99.90;;;;;;5028161;28;20173;-75
2022/11/27 00:31:28;;;;;;;13.17;3.97;;;7.60;99.90;;;;;;5011481;28;20928;-75
2022/11/27 00:33:55;;;;;;;9.13;3.20;;;7.60;99.90;;;;;;5029828;28;20936;-75
2022/11/27 00:36:21;;;;;;;4.95;2.20;;;7.60;99.90;;;;;;5034064;28;20212;-75
2022/11/27 00:38:47;;;;;;;9.40;2.97;;;7.60;99.90;;;;;;5032301;28;20168;-74
2022/11/27 00:41:22;;;;;;;5.93;2.87;;;7.60;99.90;;;;;;5032386;28;20174;-75
2022/11/27 00:43:48;;;;;;;5.93;3.00;;;7.60;99.90;;;;;;5015673;28;20617;-75
2022/11/27 00:46:20;;;;;;;8.77;2.92;;;7.50;99.90;;;;;;5032873;28;20340;-75
2022/11/27 00:48:45;;;;;;;6.20;2.25;;;7.50;99.90;;;;;;5031732;28;20685;-75
2022/11/27 00:51:15;;;;;;;9.03;3.10;;;7.50;99.90;;;;;;5033084;28;20170;-75
2022/11/27 00:53:41;;;;;;;10.00;2.88;;;7.50;99.90;;;;;;5032365;28;20926;-74
2022/11/27 00:56:08;;;;;;;5.82;2.75;;;7.50;99.90;;;;;;5031318;28;20681;-74
2022/11/27 00:58:34;;;;;;;6.35;2.67;;;7.50;99.90;;;;;;5032304;28;20174;-74
2022/11/27 01:01:02;;;;;;;7.03;2.20;;;7.50;99.90;;;;;;5033911;28;20182;-75
2022/11/27 01:03:29;;;;;;;6.50;2.25;;;7.50;99.90;;;;;;5034219;28;20200;-75
2022/11/27 01:05:55;;;;;;;8.13;2.13;;;7.50;99.90;;;;;;5031197;28;20249;-75
2022/11/27 01:08:22;;;;;;;7.38;2.45;;;7.50;99.90;;;;;;5030937;28;20193;-74
2022/11/27 01:10:53;;;;;;;6.30;2.60;;;7.50;99.90;;;;;;5032006;28;20197;-74
2022/11/27 01:13:22;;;;;;;10.93;2.72;;;7.50;99.90;;;;;;5031025;28;20170;-75
2022/11/27 01:15:58;;;;;;;10.02;2.42;;;7.50;99.90;;;;;;5031852;28;20296;-75
2022/11/27 01:18:24;;;;;;;6.15;1.80;;;7.60;99.90;;;;;;5014476;28;20567;-75
2022/11/27 01:20:53;;;;;;;5.90;2.20;;;7.60;99.90;;;;;;5030721;28;20196;-75
2022/11/27 01:23:20;;;;;;;8.02;2.80;;;7.50;99.90;;;;;;5032206;28;20284;-75
2022/11/27 01:25:46;;;;;;;9.60;3.50;;;7.50;99.90;;;;;;5031812;28;20567;-75
2022/11/27 01:28:12;;;;;;;4.45;2.40;;;7.60;99.90;;;;;;5032318;28;20252;-75
2022/11/27 01:30:37;;;;;;;6.65;2.70;;;7.60;99.90;;;;;;5030419;28;20292;-75
2022/11/27 01:33:03;;;;;;;9.00;2.60;;;7.60;99.90;;;;;;5031852;28;20161;-75
2022/11/27 01:35:29;;;;;;;10.40;3.20;;;7.60;99.90;;;;;;5013482;28;20596;-75
2022/11/27 01:37:55;;;;;;;6.13;2.30;;;7.50;99.90;;;;;;5032591;28;20177;-76
2022/11/27 01:40:21;;;;;;;4.40;2.23;;;7.50;99.90;;;;;;5014906;28;20188;-75
2022/11/27 01:42:47;;;;;;;11.25;3.67;;;7.50;99.90;;;;;;5030365;28;21232;-75
2022/11/27 01:45:16;;;;;;;10.37;2.87;;;7.60;99.90;;;;;;5029789;28;20192;-75
2022/11/27 01:47:46;;;;;;;5.72;2.30;;;7.50;99.90;;;;;;5030556;28;20166;-75
2022/11/27 01:50:26;;;;;;;6.07;2.10;;;7.50;99.90;;;;;;4997427;28;20209;-75
2022/11/27 01:52:56;;;;;;;7.47;2.65;;;7.50;99.90;;;;;;5031631;28;20219;-75
2022/11/27 01:55:33;;;;;;;4.85;1.90;;;7.60;99.90;;;;;;5031483;28;20166;-75
2022/11/27 01:58:05;;;;;;;5.35;3.80;;;7.60;99.90;;;;;;5031791;28;20165;-75
2022/11/27 02:00:31;;;;;;;7.07;2.35;;;7.60;99.90;;;;;;5031442;28;20818;-75
2022/11/27 02:02:57;;;;;;;7.80;3.20;;;7.50;99.90;;;;;;5031434;28;20690;-75
2022/11/27 02:05:28;;;;;;;8.90;2.77;;;7.50;99.90;;;;;;5031333;28;20177;-75
2022/11/27 02:07:57;;;;;;;7.25;2.80;;;7.50;99.90;;;;;;5031018;28;20169;-75
2022/11/27 02:10:39;;;;;;;5.60;2.80;;;7.50;99.90;;;;;;5013335;28;20573;-75
2022/11/27 02:13:19;;;;;;;9.32;2.72;;;7.50;99.90;;;;;;5012963;28;20228;-75
2022/11/27 02:16:11;;;;;;;14.43;4.00;;;7.40;99.90;;;;;;5032336;28;20260;-75
2022/11/27 02:18:47;;;;;;;6.60;3.67;;;7.40;99.90;;;;;;5029785;28;20174;-75
2022/11/27 02:21:25;;;;;;;6.00;3.40;;;7.40;99.90;;;;;;5030989;28;20192;-75
2022/11/27 02:24:16;;;;;;;10.07;3.40;;;7.40;99.90;;;;;;5030856;28;20223;-75
2022/11/27 02:27:04;;;;;;;13.70;5.30;;;7.40;99.90;;;;;;5030676;28;20190;-75
2022/11/27 02:29:34;;;;;;;6.40;3.40;;;7.40;99.90;;;;;;5029399;28;20209;-75
2022/11/27 02:32:14;;;;;;;7.90;4.38;;;7.40;99.90;;;;;;5012845;28;20517;-75
2022/11/27 02:34:40;;;;;;;6.57;4.30;;;7.40;99.90;;;;;;5029617;28;20186;-74
2022/11/27 02:37:12;;;;;;;6.57;3.47;;;7.40;99.90;;;;;;5030414;28;20202;-74
2022/11/27 02:39:49;;;;;;;7.68;4.25;;;7.40;99.90;;;;;;5030843;28;20178;-76
2022/11/27 02:42:19;;;;;;;5.90;4.13;;;7.40;99.90;;;;;;5029798;28;20176;-76
2022/11/27 02:44:55;;;;;;;10.00;4.95;;;7.40;99.90;;;;;;5030944;28;20580;-76
2022/11/27 02:47:22;;;;;;;8.02;4.20;;;7.30;99.90;;;;;;5029595;28;20203;-76
2022/11/27 02:49:51;;;;;;;10.57;4.43;;;7.30;99.90;;;;;;5031118;28;20237;-76
2022/11/27 02:52:19;;;;;;;9.57;5.03;;;7.30;99.90;;;;;;5031270;28;20192;-76
2022/11/27 02:54:48;;;;;;;9.27;4.68;;;7.30;99.90;;;;;;5032008;28;20499;-76
2022/11/27 02:57:16;;;;;;;9.15;5.22;;;7.30;99.90;;;;;;5012592;28;20194;-77
2022/11/27 02:59:43;;;;;;;12.15;5.75;;;7.30;99.90;;;;;;5031839;28;20231;-75
2022/11/27 03:02:15;;;;;;;9.15;6.10;;;7.20;99.90;;;;;;5030391;28;20185;-74
2022/11/27 03:04:46;;;;;;;8.23;5.80;;;7.20;99.90;;;;;;5012432;28;20197;-74
2022/11/27 03:07:21;;;;;;;13.57;6.45;;;7.20;99.90;;;;;;5029013;28;20194;-76
2022/11/27 03:09:49;;;;;;;8.38;5.97;;;7.20;99.90;;;;;;5028537;28;20284;-74
2022/11/27 03:12:17;;;;;;;11.80;6.40;;;7.20;99.90;;;;;;5030322;28;20173;-74
2022/11/27 03:14:45;;;;;;;10.65;6.70;;;7.20;99.90;;;;;;5029823;28;20188;-75
2022/11/27 03:17:28;;;;;;;10.60;6.70;;;7.10;99.90;;;;;;5028651;28;20190;-74
2022/11/27 03:19:59;;;;;;;11.23;7.30;;;7.10;99.90;;;;;;5028286;28;20201;-74
2022/11/27 03:22:26;;;;;;;16.90;8.32;;;7.10;99.90;;;;;;5028487;28;20181;-74
2022/11/27 03:24:53;;;;;;;13.10;7.40;;;7.10;99.90;;;;;;5028299;28;20178;-74
2022/11/27 03:27:27;;;;;;;17.25;8.48;;;7.00;99.90;;;;;;5029788;28;20193;-75
2022/11/27 03:29:59;;;;;;;14.52;9.55;;;7.00;99.90;;;;;;5028830;28;20200;-75
2022/11/27 03:32:27;;;;;;;14.15;8.88;;;7.00;99.90;;;;;;5030736;28;20162;-75
2022/11/27 03:34:54;;;;;;;18.13;8.88;;;7.00;99.90;;;;;;5028156;28;20232;-74
2022/11/27 03:37:21;;;;;;;12.15;7.35;;;7.00;99.90;;;;;;5011808;28;20400;-75
2022/11/27 03:39:47;;;;;;;19.02;8.80;;;7.00;99.90;;;;;;5029697;28;20498;-75
2022/11/27 03:42:26;;;;;;;20.83;9.95;;;7.00;99.90;;;;;;5028408;28;20531;-75
2022/11/27 03:45:06;;;;;;;13.60;8.32;;;7.00;99.90;;;;;;5029671;28;20161;-74
2022/11/27 03:47:47;;;;;;;14.50;8.52;;;7.00;99.90;;;;;;5011764;28;20220;-75
2022/11/27 03:50:32;;;;;;;16.20;9.27;;;7.10;99.90;;;;;;5027911;28;20207;-75
2022/11/27 03:53:09;;;;;;;11.70;7.88;;;7.10;99.90;;;;;;5028043;28;20216;-75
2022/11/27 03:55:44;;;;;;;15.65;9.57;;;7.10;99.90;;;;;;5027932;28;20555;-75
2022/11/27 03:58:29;;;;;;;14.02;8.25;;;7.10;99.90;;;;;;5028071;28;20165;-75
2022/11/27 04:00:58;;;;;;;12.55;9.40;;;7.10;99.90;;;;;;5029153;28;20177;-74
2022/11/27 04:03:26;;;;;;;16.20;9.60;;;7.10;99.90;;;;;;5029254;28;20195;-75
2022/11/27 04:05:52;;;;;;;17.50;8.77;;;7.10;99.90;;;;;;5029084;28;20276;-75
2022/11/27 04:08:18;;;;;;;16.67;11.02;;;7.20;99.90;;;;;;5032289;28;20184;-74
2022/11/27 04:10:44;;;;;;;23.97;11.20;;;7.20;99.90;;;;;;5033438;28;20201;-75
2022/11/27 04:13:09;;;;;;;11.53;7.47;;;7.10;99.90;;;;;;5032984;28;20595;-75
2022/11/27 04:15:35;;;;;;;15.33;9.93;;;7.20;99.90;;;;;;5032102;28;20280;-75
2022/11/27 04:18:01;;;;;;;13.43;7.93;;;7.20;99.90;;;;;;5031672;28;20224;-75
2022/11/27 04:20:28;;;;;;;14.57;8.23;;;7.20;99.90;;;;;;5032046;28;20173;-75
2022/11/27 04:22:54;;;;;;;15.85;9.13;;;7.20;99.90;;;;;;5032925;28;20264;-74
2022/11/27 04:25:20;;;;;;;13.13;8.18;;;7.20;99.90;;;;;;5033098;28;20169;-75
2022/11/27 04:27:46;;;;;;;15.65;9.48;;;7.30;99.90;;;;;;5032861;28;20200;-75
2022/11/27 04:30:12;;;;;;;14.97;8.90;;;7.20;99.90;;;;;;5031937;28;20221;-75
2022/11/27 04:32:38;;;;;;;16.13;9.02;;;7.30;99.90;;;;;;5031299;28;20188;-75
2022/11/27 04:35:05;;;;;;;12.30;8.30;;;7.30;99.90;;;;;;5033012;28;20264;-74
2022/11/27 04:37:31;;;;;;;14.70;10.65;;;7.30;99.90;;;;;;5031342;28;21085;-74
2022/11/27 04:39:56;;;;;;;12.27;8.65;;;7.20;99.90;;;;;;5031699;28;20181;-74
2022/11/27 04:42:22;;;;;;;13.47;8.57;;;7.20;99.90;;;;;;5031567;28;20172;-75
2022/11/27 04:44:48;;;;;;;16.50;9.03;;;7.20;99.90;;;;;;5033473;28;20178;-75
2022/11/27 04:47:14;;;;;;;14.47;8.90;;;7.20;99.90;;;;;;5032282;28;20259;-74
2022/11/27 04:49:40;;;;;;;14.70;9.57;;;7.10;99.90;;;;;;5032597;28;21173;-74
2022/11/27 04:52:05;;;;;;;14.40;8.30;;;7.20;99.90;;;;;;5032732;28;20169;-75
2022/11/27 04:54:31;;;;;;;16.60;8.20;;;7.20;99.90;;;;;;5014491;28;20169;-74
2022/11/27 04:56:57;;;;;;;13.43;8.67;;;7.20;99.90;;;;;;5031073;28;20593;-75
2022/11/27 04:59:22;;;;;;;14.67;8.67;;;7.20;99.90;;;;;;5032373;28;20176;-75
2022/11/27 05:01:49;;;;;;;10.77;8.40;;;7.20;99.90;;;;;;5032463;28;20178;-75
2022/11/27 05:04:15;;;;;;;12.65;7.70;;;7.20;99.90;;;;;;5032294;28;20165;-75
2022/11/27 05:06:40;;;;;;;15.20;8.20;;;7.10;99.90;;;;;;5031137;28;20185;-75
2022/11/27 05:09:06;;;;;;;11.87;7.90;;;7.20;99.90;;;;;;5031096;28;20249;-75
2022/11/27 05:11:33;;;;;;;12.83;7.60;;;7.20;99.90;;;;;;5031012;28;20174;-75
2022/11/27 05:14:13;;;;;;;13.57;7.60;;;7.20;99.90;;;;;;5030715;28;20259;-74
2022/11/27 05:16:58;;;;;;;12.18;7.50;;;7.20;99.90;;;;;;5032206;28;20213;-75
2022/11/27 05:19:28;;;;;;;10.50;6.93;;;7.10;99.90;;;;;;5013340;28;20180;-75
2022/11/27 05:21:54;;;;;;;12.48;6.90;;;7.10;99.90;;;;;;5032676;28;20288;-75
2022/11/27 05:24:22;;;;;;;10.37;6.97;;;7.20;99.90;;;;;;5032693;28;20197;-74
2022/11/27 05:26:48;;;;;;;14.35;6.90;;;7.20;99.90;;;;;;5032382;28;20502;-74
2022/11/27 05:29:14;;;;;;;10.80;6.82;;;7.20;99.90;;;;;;5030559;28;20190;-74
2022/11/27 05:31:40;;;;;;;12.35;6.05;;;7.20;99.90;;;;;;5031753;28;20166;-77
2022/11/27 05:34:07;;;;;;;11.00;7.53;;;7.30;99.90;;;;;;5030700;28;20527;-76
2022/11/27 05:36:33;;;;;;;10.18;6.30;;;7.30;99.90;;;;;;5030071;28;20251;-74
2022/11/27 05:39:00;;;;;;;10.57;6.28;;;7.30;99.90;;;;;;5031746;28;20181;-76
2022/11/27 05:41:27;;;;;;;11.73;5.75;;;7.30;99.90;;;;;;5032052;28;20165;-76
2022/11/27 05:43:53;;;;;;;9.07;5.65;;;7.40;99.90;;;;;;5032100;28;20250;-76
2022/11/27 05:46:20;;;;;;;9.77;6.03;;;7.40;99.90;;;;;;5031480;28;20257;-77
2022/11/27 05:48:46;;;;;;;8.68;5.78;;;7.50;99.90;;;;;;5030366;28;20182;-75
2022/11/27 05:51:12;;;;;;;7.60;5.38;;;7.50;99.90;;;;;;5031719;28;20185;-75
2022/11/27 05:53:38;;;;;;;9.00;5.68;;;7.50;99.90;;;;;;5030318;28;20170;-75
2022/11/27 05:56:07;;;;;;;7.00;5.20;;;7.50;99.90;;;;;;5031490;28;20185;-74
2022/11/27 05:58:33;;;;;;;5.65;4.78;;;7.50;99.90;;;;;;5031625;28;20204;-74
2022/11/27 06:00:59;;;;;;;9.97;5.53;;;7.50;99.90;;;;;;5015466;28;20197;-75
2022/11/27 06:03:26;;;;;;;10.33;5.37;;;7.50;99.90;;;;;;5031445;28;20622;-75
2022/11/27 06:05:52;;;;;;;9.90;5.47;;;7.50;99.90;;;;;;5031159;28;20596;-75
2022/11/27 06:08:19;;;;;;;9.68;5.00;;;7.50;99.90;;;;;;5031522;28;20256;-75
2022/11/27 06:10:45;;;;;;;7.90;5.57;;;7.60;99.90;;;;;;5029971;28;20203;-75
2022/11/27 06:13:11;;;;;;;8.20;6.50;;;7.50;99.90;;;;;;5029832;28;20633;-75
2022/11/27 06:15:38;;;;;;;9.53;4.93;;;7.50;99.90;;;;;;5030099;28;20185;-75
2022/11/27 06:18:04;;;;;;;8.98;4.45;;;7.60;99.90;;;;;;5029597;28;20646;-75
2022/11/27 06:20:30;;;;;;;8.93;4.73;;;7.60;99.90;;;;;;5029750;28;20237;-75
2022/11/27 06:22:56;;;;;;;13.55;6.63;;;7.60;99.90;;;;;;5029508;28;20567;-74
2022/11/27 06:25:23;;;;;;;7.70;5.45;;;7.60;99.90;;;;;;5029777;28;20212;-74
2022/11/27 06:27:50;;;;;;;8.85;5.38;;;7.70;99.90;;;;;;5013017;28;20209;-74
2022/11/27 06:30:16;;;;;;;9.35;5.25;;;7.60;99.90;;;;;;5030994;28;20252;-76
2022/11/27 06:32:42;;;;;;;9.75;6.85;;;7.60;99.90;;;;;;5030127;28;20575;-76
2022/11/27 06:35:09;;;;;;;10.50;5.93;;;7.60;99.90;;;;;;5030895;28;20688;-76
2022/11/27 06:37:34;;;;;;;6.80;4.90;;;7.60;99.90;;;;;;4998632;28;20724;-75
2022/11/27 06:40:00;;;;;;;7.83;4.20;;;7.60;99.90;;;;;;4997086;28;20201;-75
2022/11/27 06:42:30;;;;;;;9.48;5.35;;;7.60;99.90;;;;;;5059006;23;20659;-74
2022/11/27 06:44:56;;;;;;;8.05;4.43;;;7.60;99.90;;;;;;5041362;28;20175;-74
2022/11/27 06:47:22;;;;;;;9.75;5.78;;;7.70;99.90;;;;;;5048882;28;20179;-74
2022/11/27 06:49:48;;;;;;;9.57;4.15;;;7.70;99.90;;;;;;5048810;28;20216;-74
2022/11/27 06:52:14;;;;;;;8.52;5.13;;;7.70;99.90;;;;;;5031326;28;20737;-75
2022/11/27 06:54:40;;;;;;;13.80;4.90;;;7.70;99.90;;;;;;5049815;28;20162;-75
2022/11/27 06:57:06;;;;;;;6.77;4.43;;;7.70;99.90;;;;;;5048972;28;20191;-75
2022/11/27 06:59:31;;;;;;;7.73;4.33;;;7.70;99.90;;;;;;5050801;28;20828;-75
2022/11/27 07:02:00;;;;;;;9.07;4.57;;;7.80;99.90;;;;;;5048078;28;20193;-75
2022/11/27 07:04:26;;;;;;;5.85;3.63;;;7.80;99.90;;;;;;5035278;28;20178;-75
2022/11/27 07:06:53;;;;;;;6.80;4.57;;;7.80;99.90;;;;;;5040715;28;20256;-75
2022/11/27 07:09:19;;;;;;;10.45;4.45;;;7.90;99.90;;;;;;5047964;28;20978;-75
2022/11/27 07:11:44;;;;;;;7.53;3.93;;;7.90;99.90;;;;;;5048241;28;20185;-74
2022/11/27 07:14:10;;;;;;;6.60;4.23;;;7.80;99.90;;;;;;5047802;28;20168;-74
2022/11/27 07:16:36;;;;;;;6.17;3.93;;;7.90;99.90;;;;;;5048354;28;20209;-75
2022/11/27 07:19:05;;;;;;;3.83;3.30;;;7.90;99.90;;;;;;5048199;28;20572;-75
2022/11/27 07:21:32;;;;;;;6.25;3.65;;;7.90;99.90;;;;;;5049398;28;20209;-74
2022/11/27 07:23:57;;;;;;;6.00;4.18;;;8.00;99.90;;;;;;5048824;28;20169;-75
2022/11/27 07:26:26;;;;;;;8.00;4.20;;;8.00;99.90;;;;;;5048227;28;20231;-74
2022/11/27 07:28:52;;;;;;;6.45;3.60;;;8.00;99.90;;;;;;5049515;28;20173;-74
2022/11/27 07:31:22;;;;;;;7.50;4.30;;;8.10;99.90;;;;;;5030675;28;20629;-74
2022/11/27 07:33:48;;;;;;;10.40;3.78;;;8.10;99.90;;;;;;5047761;28;20180;-75
2022/11/27 07:36:22;;;;;;;5.45;3.72;;;8.10;99.90;;;;;;5057354;28;20157;-75
2022/11/27 07:38:49;;;;;;;9.18;4.75;;;8.10;99.90;;;;;;5049999;28;20172;-75
2022/11/27 07:41:15;;;;;;;5.25;3.25;;;8.20;99.90;;;;;;5048770;28;20204;-75
2022/11/27 07:43:43;;;;;;;5.80;4.10;;;8.20;99.90;;;;;;5048381;28;20187;-75
2022/11/27 07:46:28;;;;;;;6.07;3.90;;;8.10;99.90;;;;;;5047632;28;20179;-75
2022/11/27 07:48:54;;;;;;;5.40;3.60;;;8.20;99.90;;;;;;5048027;28;20176;-75
2022/11/27 07:51:21;;;;;;;6.17;3.77;;;8.20;99.90;;;;;;5047050;28;20738;-74
2022/11/27 07:53:50;;;;;;;5.13;3.15;;;8.30;99.90;;;;;;5047643;28;20173;-75
2022/11/27 07:56:17;;;;;;;5.97;2.97;;;8.40;99.90;;;;;;5049167;28;20226;-74
2022/11/27 07:58:43;;;;;;;7.30;3.80;;;8.40;99.90;;;;;;5031279;28;20791;-74
2022/11/27 08:01:17;;;;;;;6.18;4.15;;;8.50;99.90;;;;;;5048539;28;20188;-74
2022/11/27 08:03:43;;;;;;;5.07;3.30;;;8.40;99.90;;;;;;5047292;28;20164;-74
2022/11/27 08:06:15;;;;;;;6.20;3.60;;;8.50;99.90;;;;;;5048741;28;20169;-74
2022/11/27 08:08:41;;;;;;;5.65;3.78;;;8.50;99.90;;;;;;5047832;28;20572;-74
2022/11/27 08:11:24;;;;;;;6.67;4.03;;;8.60;99.90;;;;;;5045024;28;20620;-74
2022/11/27 08:13:55;;;;;;;6.28;3.65;;;8.50;99.90;;;;;;5043762;28;20686;-74
2022/11/27 08:16:21;;;;;;;5.13;3.72;;;8.60;99.90;;;;;;5048777;28;20507;-75
2022/11/27 08:18:46;;;;;;;5.80;3.83;;;8.70;99.90;;;;;;5048950;28;20172;-74
2022/11/27 08:21:12;;;;;;;5.80;3.20;;;8.70;99.90;;;;;;5046863;28;21190;-74
2022/11/27 08:23:38;;;;;;;7.73;3.27;;;8.70;99.90;;;;;;5048347;28;20184;-74
2022/11/27 08:26:08;;;;;;;5.07;3.23;;;8.80;99.90;;;;;;5048868;28;20572;-74
2022/11/27 08:28:35;;;;;;;6.15;3.67;;;8.90;99.90;;;;;;5048534;28;20180;-74
2022/11/27 08:31:03;;;;;;;4.25;3.50;;;9.00;99.90;;;;;;5047390;28;20193;-74
2022/11/27 08:33:30;;;;;;;4.35;2.70;;;9.10;99.90;;;;;;5046646;28;20165;-74
2022/11/27 08:35:55;;;;;;;7.13;3.80;;;9.20;99.90;;;;;;5031048;28;20169;-74
2022/11/27 08:38:22;;;;;;;5.63;3.17;;;9.20;99.90;;;;;;5047436;28;20227;-74
2022/11/27 08:40:59;;;;;;;5.18;3.20;;;9.30;99.90;;;;;;5047527;28;20567;-74
2022/11/27 08:43:25;;;;;;;5.07;3.08;;;9.30;99.90;;;;;;5047918;28;20226;-74
2022/11/27 08:45:51;;;;;;;4.25;2.38;;;9.40;99.90;;;;;;5048809;28;20169;-73
2022/11/27 08:48:18;;;;;;;4.78;2.53;;;9.50;99.90;;;;;;5048743;28;20179;-74
2022/11/27 08:50:44;;;;;;;5.47;2.80;;;9.50;99.90;;;;;;5035256;28;20219;-75
2022/11/27 08:53:10;;;;;;;4.57;3.15;;;9.60;99.90;;;;;;5047997;28;20165;-74
2022/11/27 08:55:36;;;;;;;4.65;3.22;;;9.60;99.90;;;;;;5051039;28;20260;-74
2022/11/27 08:58:03;;;;;;;5.13;3.72;;;9.60;99.90;;;;;;5052180;28;20161;-74
2022/11/27 09:00:30;;;;;;;5.40;3.10;;;9.70;99.90;;;;;;5051182;28;20256;-74
2022/11/27 09:02:57;;;;;;;7.25;3.40;;;9.80;99.90;;;;;;5052112;28;20193;-75
2022/11/27 09:05:23;;;;;;;4.68;3.30;;;9.80;99.90;;;;;;5050800;28;20217;-74
2022/11/27 09:07:50;;;;;;;5.70;3.57;;;9.90;99.90;;;;;;5052629;28;20575;-74
2022/11/27 09:10:15;;;;;;;8.32;3.60;;;9.90;99.90;;;;;;5051713;28;20614;-74
2022/11/27 09:12:43;;;;;;;6.30;4.13;;;9.90;99.90;;;;;;5051736;28;20185;-75
2022/11/27 09:15:10;;;;;;;6.57;3.80;;;9.90;99.90;;;;;;5050776;28;20915;-75
2022/11/27 09:17:36;;;;;;;7.45;3.65;;;9.90;99.90;;;;;;5052241;28;20637;-74
2022/11/27 09:20:03;;;;;;;6.07;4.53;;;10.00;99.90;;;;;;5052341;28;20298;-75
2022/11/27 09:22:29;;;;;;;7.00;3.28;;;9.90;99.90;;;;;;5051368;28;20196;-74
2022/11/27 09:24:54;;;;;;;6.33;3.10;;;10.00;99.90;;;;;;5033705;28;20181;-75
2022/11/27 09:27:20;;;;;;;5.20;3.97;;;10.00;99.90;;;;;;5054923;28;20192;-75
2022/11/27 09:29:46;;;;;;;6.50;3.17;;;10.00;99.90;;;;;;5052375;28;20204;-75
2022/11/27 09:32:11;;;;;;;6.23;4.50;;;9.90;99.90;;;;;;5049766;28;20250;-75
2022/11/27 09:34:37;;;;;;;8.27;4.60;;;9.80;99.90;;;;;;5049937;28;20821;-75
2022/11/27 09:37:03;;;;;;;6.73;3.60;;;9.90;99.90;;;;;;5051760;28;20221;-74
2022/11/27 09:39:32;;;;;;;5.97;4.20;;;9.90;99.90;;;;;;5050257;28;20609;-74
2022/11/27 09:42:05;;;;;;;5.63;3.55;;;9.90;99.90;;;;;;5050485;28;20670;-74
2022/11/27 09:44:41;;;;;;;7.57;3.58;;;9.90;99.90;;;;;;5050299;28;20507;-74
2022/11/27 09:47:29;;;;;;;9.20;4.13;;;9.90;99.90;;;;;;5051155;28;20179;-75
2022/11/27 09:50:13;;;;;;;5.28;3.70;;;10.00;99.90;;;;;;5051188;28;20204;-74
2022/11/27 09:52:40;;;;;;;4.30;3.63;;;10.10;99.90;;;;;;5050538;28;20195;-74
2022/11/27 09:55:43;;;;;;;5.97;4.53;;;10.20;99.90;;;;;;5050144;28;20219;-74
2022/11/27 09:58:19;;;;;;;6.50;3.35;;;10.20;99.90;;;;;;5051317;28;20157;-74
2022/11/27 10:00:46;;;;;;;7.75;4.35;;;10.30;99.90;;;;;;5049438;28;20640;-74
2022/11/27 10:03:23;;;;;;;7.38;4.10;;;10.40;99.90;;;;;;5032566;28;20542;-74
2022/11/27 10:06:07;;;;;;;5.15;4.65;;;10.50;99.90;;;;;;5051889;28;20175;-74
2022/11/27 10:09:05;;;;;;;7.07;4.20;;;10.50;99.90;;;;;;5051115;28;20172;-74
2022/11/27 10:11:46;;;;;;;6.38;4.15;;;10.70;99.90;;;;;;5044382;28;20236;-74
2022/11/27 10:14:20;;;;;;;5.18;4.30;;;10.80;99.90;;;;;;5033465;28;20161;-74
2022/11/27 10:16:57;;;;;;;6.30;4.10;;;10.80;99.90;;;;;;5051145;28;20195;-74
2022/11/27 10:20:00;;;;;;;6.10;4.40;;;10.70;99.90;;;;;;5051540;28;20175;-74
2022/11/27 10:22:49;;;;;;;6.13;4.47;;;10.80;99.90;;;;;;5050844;28;20664;-75
2022/11/27 10:25:20;;;;;;;7.85;4.90;;;10.80;99.90;;;;;;5034163;28;20610;-74
2022/11/27 10:28:11;;;;;;;5.38;3.78;;;10.70;99.90;;;;;;5051297;28;20582;-75
2022/11/27 10:30:43;;;;;;;4.88;3.85;;;10.70;99.90;;;;;;5051676;28;20203;-74
2022/11/27 10:33:17;;;;;;;6.07;4.05;;;10.90;99.90;;;;;;5050310;28;20647;-74
2022/11/27 10:35:48;;;;;;;7.25;4.25;;;10.90;99.90;;;;;;5051622;28;20199;-75
2022/11/27 10:38:19;;;;;;;5.65;3.67;;;10.90;99.90;;;;;;5052380;28;20310;-75
2022/11/27 10:41:05;;;;;;;5.90;4.25;;;10.90;99.90;;;;;;5050126;28;20176;-75
2022/11/27 10:43:31;;;;;;;6.70;3.97;;;10.80;99.90;;;;;;5053827;28;20179;-73
2022/11/27 10:46:18;;;;;;;7.38;4.38;;;10.70;99.90;;;;;;5032899;28;20520;-73
2022/11/27 10:48:43;;;;;;;6.95;3.85;;;10.80;99.90;;;;;;5050386;28;20165;-73
2022/11/27 10:51:16;;;;;;;6.20;3.40;;;10.80;99.90;;;;;;5048201;28;20197;-74
2022/11/27 10:53:43;;;;;;;6.78;3.67;;;10.80;99.90;;;;;;5021919;28;20185;-74
2022/11/27 10:56:14;;;;;;;7.75;3.95;;;10.80;99.90;;;;;;5048864;28;20161;-74
2022/11/27 10:59:03;;;;;;;7.10;3.17;;;10.80;99.90;;;;;;5048875;28;20165;-74
2022/11/27 11:01:45;;;;;;;6.65;3.95;;;10.80;99.90;;;;;;5048681;28;20195;-74
2022/11/27 11:04:13;;;;;;;5.15;3.47;;;10.90;99.90;;;;;;5048358;28;20323;-75
2022/11/27 11:06:43;;;;;;;5.35;3.58;;;10.90;99.90;;;;;;5049019;28;20188;-73
2022/11/27 11:09:23;;;;;;;4.90;2.97;;;11.00;99.90;;;;;;5048797;28;20179;-74
2022/11/27 11:11:49;;;;;;;12.63;3.75;;;11.10;99.90;;;;;;5048535;28;20184;-74
2022/11/27 11:14:21;;;;;;;6.70;4.20;;;11.20;99.90;;;;;;5031210;28;20173;-75
2022/11/27 11:16:48;;;;;;;5.30;3.70;;;11.20;99.90;;;;;;5031494;28;20185;-74
2022/11/27 11:19:32;;;;;;;7.38;4.45;;;11.30;99.90;;;;;;5034051;28;20169;-74
2022/11/27 11:21:59;;;;;;;6.15;3.45;;;11.30;99.90;;;;;;5048223;28;20185;-74
2022/11/27 11:24:28;;;;;;;6.07;4.13;;;11.40;99.90;;;;;;5047911;28;20661;-74
2022/11/27 11:26:58;;;;;;;5.28;3.38;;;11.50;99.90;;;;;;5049780;28;20173;-75
2022/11/27 11:29:27;;;;;;;8.25;3.63;;;11.40;99.90;;;;;;5051327;28;20204;-74
2022/11/27 11:31:54;;;;;;;7.18;4.00;;;11.40;99.90;;;;;;5050919;28;20189;-75
2022/11/27 11:34:24;;;;;;;6.57;4.47;;;11.40;99.90;;;;;;5034371;28;20172;-74
2022/11/27 11:37:01;;;;;;;6.30;3.10;;;11.50;99.90;;;;;;5052090;28;20211;-74
2022/11/27 11:40:07;;;;;;;4.90;3.25;;;11.50;99.90;;;;;;5050948;28;20177;-75
2022/11/27 11:42:35;;;;;;;5.18;3.72;;;11.50;99.90;;;;;;5011226;28;20578;-75
2022/11/27 11:45:10;;;;;;;5.50;3.45;;;11.60;99.90;;;;;;5050776;28;20755;-75
2022/11/27 11:47:54;;;;;;;6.13;3.33;;;11.50;99.90;;;;;;5050874;28;20164;-74
2022/11/27 11:50:40;;;;;;;5.10;3.45;;;11.50;99.90;;;;;;5048608;28;20845;-75
2022/11/27 11:53:27;;;;;;;5.85;3.55;;;11.60;99.90;;;;;;5048120;28;20196;-76
2022/11/27 11:56:15;;;;;;;5.00;3.30;;;11.50;99.90;;;;;;5047970;28;20751;-75
2022/11/27 11:59:13;;;;;;;6.18;3.65;;;11.40;99.90;;;;;;5051087;28;20568;-73
2022/11/27 12:02:19;;;;;;;6.15;3.80;;;11.40;99.90;;;;;;5047583;28;20689;-74
2022/11/27 12:05:04;;;;;;;4.05;3.65;;;11.40;99.90;;;;;;5048185;28;20169;-73
2022/11/27 12:07:55;;;;;;;5.88;3.80;;;11.50;99.90;;;;;;5049188;28;20172;-74
2022/11/27 12:10:37;;;;;;;7.32;4.43;;;11.50;99.90;;;;;;5054352;28;20193;-73
2022/11/27 12:13:25;;;;;;;6.43;4.22;;;11.50;99.90;;;;;;5043648;28;20195;-75
2022/11/27 12:16:35;;;;;;;6.78;3.80;;;11.50;99.90;;;;;;5008245;28;20170;-74
2022/11/27 12:19:28;;;;;;;4.75;3.35;;;11.60;99.90;;;;;;4991738;28;20182;-74
2022/11/27 12:22:25;;;;;;;6.40;4.55;;;11.60;99.90;;;;;;4991198;28;20232;-74
2022/11/27 12:25:12;;;;;;;5.07;3.38;;;11.60;99.90;;;;;;4982382;28;20183;-74
2022/11/27 12:28:09;;;;;;;6.45;3.45;;;11.70;99.90;;;;;;5008962;28;20167;-74
2022/11/27 12:30:37;;;;;;;7.30;3.97;;;11.80;99.90;;;;;;5011836;28;20198;-75
2022/11/27 12:33:27;;;;;;;5.57;2.53;;;11.80;99.90;;;;;;5012407;28;20217;-75
2022/11/27 12:36:10;;;;;;;6.70;3.80;;;11.80;99.90;;;;;;4997995;28;20182;-75
2022/11/27 12:38:58;;;;;;;4.88;3.53;;;11.90;99.90;;;;;;5012798;28;20642;-75
2022/11/27 12:41:30;;;;;;;6.80;3.67;;;11.90;99.90;;;;;;5011132;28;20281;-73
2022/11/27 12:43:59;;;;;;;3.58;2.38;;;11.90;99.90;;;;;;5012353;28;20808;-74
2022/11/27 12:46:37;;;;;;;5.60;3.75;;;11.90;99.90;;;;;;5012937;28;20193;-74
2022/11/27 12:49:08;;;;;;;4.72;3.90;;;11.90;99.90;;;;;;4995035;28;20683;-73
2022/11/27 12:51:47;;;;;;;4.55;3.47;;;12.00;99.90;;;;;;5010960;28;20260;-73
2022/11/27 12:54:35;;;;;;;5.50;3.05;;;11.90;99.90;;;;;;5011928;28;20178;-73
2022/11/27 12:57:10;;;;;;;6.15;3.00;;;12.00;99.90;;;;;;5012534;28;20648;-73
2022/11/27 13:00:01;;;;;;;5.07;3.78;;;12.00;99.90;;;;;;5027765;28;20204;-73
2022/11/27 13:02:56;;;;;;;5.65;3.38;;;12.00;99.90;;;;;;5037115;23;20217;-72
2022/11/27 13:05:28;;;;;;;5.68;3.05;;;11.90;99.90;;;;;;5023409;28;20177;-72
2022/11/27 13:07:54;;;;;;;5.60;2.75;;;11.90;99.90;;;;;;5032401;28;20166;-72
2022/11/27 13:10:30;;;;;;;3.80;2.60;;;12.00;99.90;;;;;;5031906;28;20193;-72
2022/11/27 13:13:27;;;;;;;8.43;3.90;;;12.00;99.90;;;;;;5031903;28;20812;-72